Time;durP1;ratioP1;P1;durP2;ratioP2;P2;SDS_P1;SDS_P2;PMS_P1;PMS_P2;Temp;Humidity;BMP_temperature;BMP_pressure;BME280_temperature;BME280_humidity;BME280_pressure;Samples;Min_cycle;Max_cycle;Signal;HPM_P1;HPM_P2
2023/07/04 00:00:59;;;;;;;;;6.25;5.00;;;;;-143.57;100.00;65101.44;5037303;28;45242;-52
2023/07/04 00:03:27;;;;;;;;;7.50;6.00;;;;;-143.57;100.00;65101.44;5036821;28;46571;-49
2023/07/04 00:05:54;;;;;;;;;9.25;7.00;;;;;-143.57;100.00;65101.44;5036816;28;45862;-58
2023/07/04 00:08:21;;;;;;;;;14.00;9.75;;;;;-143.57;100.00;65101.44;5036868;28;45295;-60
2023/07/04 00:10:47;;;;;;;;;12.25;10.00;;;;;-143.57;100.00;65101.44;5037062;28;45351;-45
2023/07/04 00:13:12;;;;;;;;;13.00;8.75;;;;;-143.57;100.00;65101.44;5036737;28;46230;-48
2023/07/04 00:15:46;;;;;;;;;16.25;13.00;;;;;-143.57;100.00;65101.44;5036254;28;45425;-61
2023/07/04 00:18:12;;;;;;;;;8.00;7.75;;;;;-143.57;100.00;65101.44;5036434;28;45269;-49
2023/07/04 00:20:37;;;;;;;;;12.00;8.25;;;;;-143.57;100.00;65101.44;5035958;28;45335;-57
2023/07/04 00:23:04;;;;;;;;;13.25;9.75;;;;;-143.57;100.00;65101.44;5036377;28;46122;-56
2023/07/04 00:25:31;;;;;;;;;11.50;8.00;;;;;-143.57;100.00;65101.44;5035488;28;45370;-49
2023/07/04 00:27:56;;;;;;;;;10.50;8.25;;;;;-143.57;100.00;65101.44;5036990;28;45451;-56
2023/07/04 00:30:21;;;;;;;;;11.50;7.00;;;;;-143.57;100.00;65101.44;5036795;28;45521;-44
2023/07/04 00:32:47;;;;;;;;;14.25;7.50;;;;;-143.57;100.00;65101.44;5036662;28;47002;-55
2023/07/04 00:35:13;;;;;;;;;8.00;7.75;;;;;-143.57;100.00;65101.44;5036486;28;45327;-55
2023/07/04 00:37:38;;;;;;;;;12.25;8.50;;;;;-143.57;100.00;65101.44;5018883;28;45336;-49
2023/07/04 00:40:09;;;;;;;;;13.50;8.25;;;;;-143.57;100.00;65101.44;5036519;28;45543;-48
2023/07/04 00:42:36;;;;;;;;;9.25;7.25;;;;;-143.57;100.00;65101.44;5036361;28;46224;-46
2023/07/04 00:45:09;;;;;;;;;7.50;4.75;;;;;-143.57;100.00;65101.44;5036523;28;45378;-50
2023/07/04 00:47:43;;;;;;;;;9.75;6.75;;;;;-143.57;100.00;65101.44;5036500;28;45346;-50
2023/07/04 00:50:13;;;;;;;;;9.00;6.00;;;;;-143.57;100.00;65101.44;5036407;28;45403;-46
2023/07/04 00:52:39;;;;;;;;;10.50;8.25;;;;;-143.57;100.00;65101.44;5035530;28;46203;-51
2023/07/04 00:55:09;;;;;;;;;6.50;6.50;;;;;-143.57;100.00;65101.44;5036089;28;45473;-49
2023/07/04 00:57:35;;;;;;;;;7.50;4.75;;;;;-143.57;100.00;65101.44;5036619;28;45417;-54
2023/07/04 01:00:19;;;;;;;;;11.50;7.50;;;;;-143.57;100.00;65101.44;5036837;28;45438;-46
2023/07/04 01:02:52;;;;;;;;;10.00;7.00;;;;;-143.57;100.00;65101.44;5036331;28;46657;-54
2023/07/04 01:05:30;;;;;;;;;7.25;6.25;;;;;-143.57;100.00;65101.44;5036294;28;45236;-57
2023/07/04 01:08:07;;;;;;;;;6.75;5.25;;;;;-143.57;100.00;65101.44;5035843;28;45467;-50
2023/07/04 01:10:44;;;;;;;;;7.00;5.00;;;;;-143.57;100.00;65101.44;5036155;28;45639;-45
2023/07/04 01:13:34;;;;;;;;;5.75;5.50;;;;;-143.57;100.00;65101.44;5035827;28;46364;-45
2023/07/04 01:16:11;;;;;;;;;7.25;4.75;;;;;-143.57;100.00;65101.44;5035815;28;45448;-50
2023/07/04 01:18:38;;;;;;;;;6.25;5.00;;;;;-143.57;100.00;65101.44;5036141;28;45629;-49
2023/07/04 01:21:06;;;;;;;;;3.75;3.75;;;;;-143.57;100.00;65101.44;5036172;28;45395;-45
2023/07/04 01:23:54;;;;;;;;;4.50;4.00;;;;;-143.57;100.00;65101.44;5035766;28;46424;-49
2023/07/04 01:26:31;;;;;;;;;5.00;5.00;;;;;-143.57;100.00;65101.44;5035158;28;45398;-51
2023/07/04 01:28:58;;;;;;;;;6.25;5.25;;;;;-143.57;100.00;65101.44;5036255;28;45215;-55
2023/07/04 01:31:26;;;;;;;;;5.75;4.25;;;;;-143.57;100.00;65101.44;5038381;28;45558;-47
2023/07/04 01:33:53;;;;;;;;;3.25;3.25;;;;;-143.57;100.00;65101.44;5038247;28;46366;-49
2023/07/04 01:36:24;;;;;;;;;4.75;2.75;;;;;-143.57;100.00;65101.44;5039341;28;45357;-44
2023/07/04 01:38:50;;;;;;;;;4.75;4.75;;;;;-143.57;100.00;65101.44;5039161;28;45432;-57
2023/07/04 01:41:15;;;;;;;;;6.50;4.75;;;;;-143.57;100.00;65101.44;5039309;28;45460;-42
2023/07/04 01:43:43;;;;;;;;;4.00;2.50;;;;;-143.57;100.00;65101.44;5039195;28;46484;-46
2023/07/04 01:46:08;;;;;;;;;6.50;3.75;;;;;-143.57;100.00;65101.44;5039147;28;45192;-50
2023/07/04 01:48:34;;;;;;;;;4.50;3.00;;;;;-143.57;100.00;65101.44;5039169;28;45277;-50
2023/07/04 01:50:59;;;;;;;;;3.75;3.75;;;;;-143.57;100.00;65101.44;5039204;28;45452;-44
2023/07/04 01:53:25;;;;;;;;;4.00;2.75;;;;;-143.57;100.00;65101.44;5038912;28;46468;-48
2023/07/04 01:55:50;;;;;;;;;5.25;3.75;;;;;-143.57;100.00;65101.44;5038826;28;45365;-47
2023/07/04 01:58:15;;;;;;;;;5.50;3.50;;;;;-143.57;100.00;65101.44;5021197;28;45487;-55
2023/07/04 02:00:41;;;;;;;;;8.00;4.75;;;;;-143.57;100.00;65101.44;5038808;28;45518;-41
2023/07/04 02:03:06;;;;;;;;;5.25;3.50;;;;;-143.57;100.00;65101.44;5038241;28;46189;-51
2023/07/04 02:05:32;;;;;;;;;5.00;4.00;;;;;-143.57;100.00;65101.44;5038803;28;45382;-61
2023/07/04 02:07:58;;;;;;;;;4.75;4.00;;;;;-143.57;100.00;65101.44;5038923;28;45346;-55
2023/07/04 02:10:24;;;;;;;;;5.50;4.00;;;;;-143.57;100.00;65101.44;5038617;28;45536;-48
2023/07/04 02:12:50;;;;;;;;;5.25;5.00;;;;;-143.57;100.00;65101.44;5038721;28;45428;-56
2023/07/04 02:15:15;;;;;;;;;4.75;4.75;;;;;-143.57;100.00;65101.44;5038453;28;45243;-60
2023/07/04 02:17:40;;;;;;;;;4.50;4.25;;;;;-143.57;100.00;65101.44;5038735;28;45405;-60
2023/07/04 02:20:07;;;;;;;;;3.50;3.50;;;;;-143.57;100.00;65101.44;5038876;28;45388;-51
2023/07/04 02:22:33;;;;;;;;;4.00;4.00;;;;;-143.57;100.00;65101.44;5038474;28;46300;-61
2023/07/04 02:24:59;;;;;;;;;6.50;3.50;;;;;-143.57;100.00;65101.44;5038355;28;45420;-56
2023/07/04 02:27:24;;;;;;;;;5.00;3.50;;;;;-143.57;100.00;65101.44;5038480;28;45207;-60
2023/07/04 02:29:50;;;;;;;;;8.50;5.00;;;;;-143.57;100.00;65101.44;5038501;28;45635;-60
2023/07/04 02:32:16;;;;;;;;;4.75;4.75;;;;;-143.57;100.00;65101.44;5038286;28;45293;-59
2023/07/04 02:34:41;;;;;;;;;4.00;4.00;;;;;-143.57;100.00;65101.44;5038178;28;45537;-61
2023/07/04 02:37:07;;;;;;;;;5.25;4.25;;;;;-143.57;100.00;65101.44;5038602;28;45295;-40
2023/07/04 02:39:32;;;;;;;;;6.50;5.25;;;;;-143.57;100.00;65101.44;5038496;28;45328;-47
2023/07/04 02:41:57;;;;;;;;;5.00;4.00;;;;;-143.57;100.00;65101.44;5037955;28;46960;-47
2023/07/04 02:44:23;;;;;;;;;5.00;5.00;;;;;-143.57;100.00;65101.44;5038343;28;45349;-52
2023/07/04 02:46:48;;;;;;;;;4.50;3.50;;;;;-143.57;100.00;65101.44;5038296;28;46080;-45
2023/07/04 02:49:14;;;;;;;;;5.75;4.50;;;;;-143.57;100.00;65101.44;5038481;28;45459;-51
2023/07/04 02:51:39;;;;;;;;;2.75;2.75;;;;;-143.57;100.00;65101.44;5037974;28;47454;-53
2023/07/04 02:54:04;;;;;;;;;6.00;3.75;;;;;-143.57;100.00;65101.44;5037979;28;45394;-50
2023/07/04 02:56:31;;;;;;;;;6.75;3.00;;;;;-143.57;100.00;65101.44;5038172;28;45502;-47
2023/07/04 02:58:57;;;;;;;;;4.75;3.50;;;;;-143.57;100.00;65101.44;5038247;28;45401;-46
2023/07/04 03:01:22;;;;;;;;;3.50;2.75;;;;;-143.57;100.00;65101.44;5037742;28;46105;-45
2023/07/04 03:03:47;;;;;;;;;6.50;4.50;;;;;-143.57;100.00;65101.44;5036811;28;45282;-48
2023/07/04 03:06:13;;;;;;;;;3.75;3.75;;;;;-143.57;100.00;65101.44;5037924;28;45358;-55
2023/07/04 03:08:38;;;;;;;;;10.75;4.00;;;;;-143.57;100.00;65101.44;5038192;28;45314;-47
2023/07/04 03:11:03;;;;;;;;;4.50;4.00;;;;;-143.57;100.00;65101.44;5037485;28;46223;-45
2023/07/04 03:13:31;;;;;;;;;3.50;3.50;;;;;-143.57;100.00;65101.44;5019911;28;45324;-44
2023/07/04 03:15:57;;;;;;;;;5.75;4.25;;;;;-143.57;100.00;65101.44;5037575;28;45195;-47
2023/07/04 03:18:23;;;;;;;;;4.50;3.50;;;;;-143.57;100.00;65101.44;5037786;28;45517;-43
2023/07/04 03:20:48;;;;;;;;;3.25;3.25;;;;;-143.57;100.00;65101.44;5037637;28;47077;-51
2023/07/04 03:23:13;;;;;;;;;6.00;4.75;;;;;-143.57;100.00;65101.44;5037610;28;45330;-45
2023/07/04 03:25:39;;;;;;;;;4.50;3.50;;;;;-143.57;100.00;65101.44;5037510;28;45329;-51
2023/07/04 03:28:04;;;;;;;;;3.25;3.25;;;;;-143.57;100.00;65101.44;5037339;28;45595;-48
2023/07/04 03:30:29;;;;;;;;;3.25;3.25;;;;;-143.57;100.00;65101.44;5037290;28;46342;-49
2023/07/04 03:32:55;;;;;;;;;4.50;3.00;;;;;-143.57;100.00;65101.44;5037562;28;45259;-55
2023/07/04 03:35:20;;;;;;;;;3.00;3.00;;;;;-143.57;100.00;65101.44;5037699;28;45332;-61
2023/07/04 03:37:45;;;;;;;;;3.75;2.75;;;;;-143.57;100.00;65101.44;5037653;28;45340;-48
2023/07/04 03:40:11;;;;;;;;;4.00;4.00;;;;;-143.57;100.00;65101.44;5037184;28;45348;-48
2023/07/04 03:42:39;;;;;;;;;3.25;2.50;;;;;-143.57;100.00;65101.44;5037432;28;45425;-50
2023/07/04 03:45:06;;;;;;;;;4.75;3.25;;;;;-143.57;100.00;65101.44;5037296;28;45301;-48
2023/07/04 03:47:32;;;;;;;;;4.50;2.00;;;;;-143.57;100.00;65101.44;5037585;28;45377;-50
2023/07/04 03:49:57;;;;;;;;;4.50;3.00;;;;;-143.57;100.00;65101.44;5036876;28;45558;-49
2023/07/04 03:52:23;;;;;;;;;3.50;3.50;;;;;-143.57;100.00;65101.44;5019254;28;45858;-47
2023/07/04 03:54:48;;;;;;;;;10.00;7.00;;;;;-143.57;100.00;65101.44;5036756;28;45538;-46
2023/07/04 03:57:13;;;;;;;;;3.00;3.00;;;;;-143.57;100.00;65101.44;5037462;28;45528;-47
2023/07/04 03:59:38;;;;;;;;;5.00;3.00;;;;;-143.57;100.00;65101.44;5037087;28;46194;-54
2023/07/04 04:02:04;;;;;;;;;3.25;3.25;;;;;-143.57;100.00;65101.44;5037211;28;45373;-48
2023/07/04 04:04:30;;;;;;;;;5.25;4.50;;;;;-143.57;100.00;65101.44;5037312;28;45284;-52
2023/07/04 04:06:58;;;;;;;;;5.25;4.00;;;;;-143.57;100.00;65101.44;5037320;28;45332;-53
2023/07/04 04:09:24;;;;;;;;;3.75;1.50;;;;;-143.57;100.00;65101.44;5036948;28;45244;-61
2023/07/04 04:11:50;;;;;;;;;5.75;3.00;;;;;-143.57;100.00;65101.44;5036698;28;45202;-58
2023/07/04 04:14:16;;;;;;;;;5.00;3.75;;;;;-143.57;100.00;65101.44;5036841;28;45297;-58
2023/07/04 04:16:41;;;;;;;;;6.00;3.25;;;;;-143.57;100.00;65101.44;5036363;28;45519;-53
2023/07/04 04:19:07;;;;;;;;;3.75;3.00;;;;;-143.57;100.00;65101.44;5036613;28;46102;-60
2023/07/04 04:21:32;;;;;;;;;4.50;4.00;;;;;-143.57;100.00;65101.44;5036783;28;45357;-62
2023/07/04 04:23:57;;;;;;;;;4.75;2.25;;;;;-143.57;100.00;65101.44;5018985;28;45495;-48
2023/07/04 04:26:23;;;;;;;;;5.00;3.50;;;;;-143.57;100.00;65101.44;5036857;28;45384;-58
2023/07/04 04:28:49;;;;;;;;;2.50;2.50;;;;;-143.57;100.00;65101.44;5036914;28;45369;-63
2023/07/04 04:31:15;;;;;;;;;7.75;3.25;;;;;-143.57;100.00;65101.44;5036631;28;45432;-61
2023/07/04 04:33:40;;;;;;;;;7.75;5.25;;;;;-143.57;100.00;65101.44;5036644;28;45343;-59
2023/07/04 04:36:06;;;;;;;;;4.00;4.00;;;;;-143.57;100.00;65101.44;5036897;28;45431;-51
2023/07/04 04:38:32;;;;;;;;;7.00;5.00;;;;;-143.57;100.00;65101.44;5036530;28;46032;-56
2023/07/04 04:41:04;;;;;;;;;3.25;3.00;;;;;-143.57;100.00;65101.44;5036761;28;45417;-59
2023/07/04 04:43:32;;;;;;;;;5.50;4.00;;;;;-143.57;100.00;65101.44;5037525;28;45375;-53
2023/07/04 04:45:58;;;;;;;;;6.75;4.00;;;;;-143.57;100.00;65101.44;5036836;28;45256;-55
2023/07/04 04:48:29;;;;;;;;;7.00;4.50;;;;;-143.57;100.00;65101.44;5036471;28;47125;-50
2023/07/04 04:50:59;;;;;;;;;5.50;5.00;;;;;-143.57;100.00;65101.44;5036188;28;45294;-54
2023/07/04 04:53:25;;;;;;;;;6.50;4.00;;;;;-143.57;100.00;65101.44;5036680;28;45307;-43
2023/07/04 04:55:51;;;;;;;;;4.25;3.50;;;;;-143.57;100.00;65101.44;5036532;28;45549;-59
2023/07/04 04:58:17;;;;;;;;;7.50;4.00;;;;;-143.57;100.00;65101.44;5036267;28;46124;-51
2023/07/04 05:00:44;;;;;;;;;6.25;4.50;;;;;-143.57;100.00;65101.44;5036546;28;45251;-54
2023/07/04 05:03:10;;;;;;;;;5.50;4.25;;;;;-143.57;100.00;65101.44;5036661;28;45361;-59
2023/07/04 05:05:35;;;;;;;;;3.75;3.75;;;;;-143.57;100.00;65101.44;5037757;28;45303;-58
2023/07/04 05:08:01;;;;;;;;;6.50;5.00;;;;;-143.57;100.00;65101.44;5039805;28;46800;-57
2023/07/04 05:10:26;;;;;;;;;5.75;2.75;;;;;-143.57;100.00;65101.44;5039725;28;45337;-59
2023/07/04 05:12:52;;;;;;;;;6.00;4.00;;;;;-143.57;100.00;65101.44;5039194;28;45425;-45
2023/07/04 05:15:17;;;;;;;;;4.50;3.25;;;;;-143.57;100.00;65101.44;5039814;28;45504;-52
2023/07/04 05:17:42;;;;;;;;;8.50;5.25;;;;;-143.57;100.00;65101.44;5039613;28;45480;-61
2023/07/04 05:20:13;;;;;;;;;12.75;4.00;;;;;-143.57;100.00;65101.44;5039330;28;47181;-57
2023/07/04 05:22:38;;;;;;;;;4.25;4.25;;;;;-143.57;100.00;65101.44;5039782;28;45344;-43
2023/07/04 05:25:05;;;;;;;;;5.00;4.00;;;;;-143.57;100.00;65101.44;5039899;28;45334;-49
2023/07/04 05:27:30;;;;;;;;;7.00;5.00;;;;;-143.57;100.00;65101.44;5039151;28;46945;-46
2023/07/04 05:29:56;;;;;;;;;6.75;5.75;;;;;-143.57;100.00;65101.44;5039177;28;45554;-39
2023/07/04 05:32:21;;;;;;;;;3.50;3.50;;;;;-143.57;100.00;65101.44;5039458;28;45420;-50
2023/07/04 05:34:48;;;;;;;;;6.25;4.25;;;;;-143.57;100.00;65101.44;5039562;28;45410;-39
2023/07/04 05:37:14;;;;;;;;;5.00;5.00;;;;;-143.57;100.00;65101.44;5039482;28;45434;-42
2023/07/04 05:39:39;;;;;;;;;6.25;4.50;;;;;-143.57;100.00;65101.44;5039052;28;45328;-45
2023/07/04 05:42:04;;;;;;;;;8.75;3.50;;;;;-143.57;100.00;65101.44;5038874;28;47116;-40
2023/07/04 05:44:30;;;;;;;;;5.25;5.25;;;;;-143.57;100.00;65101.44;5040373;28;45301;-40
2023/07/04 05:46:55;;;;;;;;;8.50;4.75;;;;;-143.57;100.00;65101.44;5040148;28;46176;-42
2023/07/04 05:49:20;;;;;;;;;6.00;4.50;;;;;-143.57;100.00;65101.44;5039516;28;45330;-41
2023/07/04 05:51:46;;;;;;;;;6.00;5.00;;;;;-143.57;100.00;65101.44;5040526;28;45412;-42
2023/07/04 05:54:11;;;;;;;;;6.50;5.25;;;;;-143.57;100.00;65101.44;5043909;28;45390;-53
2023/07/04 05:56:36;;;;;;;;;6.25;4.75;;;;;-143.57;100.00;65101.44;5045293;28;46929;-50
2023/07/04 05:59:02;;;;;;;;;10.75;5.25;;;;;-143.57;100.00;65101.44;5043950;28;45308;-55
2023/07/04 06:01:42;;;;;;;;;6.75;3.25;;;;;-143.57;100.00;65101.44;5044106;28;45329;-51
2023/07/04 06:04:10;;;;;;;;;9.00;6.00;;;;;-143.57;100.00;65101.44;5044568;28;45417;-60
2023/07/04 06:06:42;;;;;;;;;6.25;5.75;;;;;-143.57;100.00;65101.44;5041085;28;45436;-58
2023/07/04 06:09:11;;;;;;;;;7.50;6.00;;;;;-143.57;100.00;65101.44;5041375;28;45460;-50
2023/07/04 06:11:39;;;;;;;;;7.75;6.00;;;;;-143.57;100.00;65101.44;5042201;28;45513;-58
2023/07/04 06:14:05;;;;;;;;;8.00;8.00;;;;;-143.57;100.00;65101.44;5042589;28;45381;-51
2023/07/04 06:16:31;;;;;;;;;12.75;7.75;;;;;-143.57;100.00;65101.44;5040132;28;46188;-63
2023/07/04 06:18:57;;;;;;;;;6.00;5.00;;;;;-143.57;100.00;65101.44;5041096;28;45311;-61
2023/07/04 06:21:24;;;;;;;;;7.50;6.25;;;;;-143.57;100.00;65101.44;5042400;28;45309;-41
2023/07/04 06:23:54;;;;;;;;;6.75;4.75;;;;;-143.57;100.00;65101.44;5041979;28;45309;-46
2023/07/04 06:26:19;;;;;;;;;6.25;6.00;;;;;-143.57;100.00;65101.44;5040279;28;46199;-44
2023/07/04 06:28:45;;;;;;;;;5.50;5.50;;;;;-143.57;100.00;65101.44;5041910;28;45369;-42
2023/07/04 06:31:13;;;;;;;;;5.75;5.00;;;;;-143.57;100.00;65101.44;5041683;28;45515;-52
2023/07/04 06:33:38;;;;;;;;;8.25;6.00;;;;;-143.57;100.00;65101.44;5041086;28;45231;-55
2023/07/04 06:36:07;;;;;;;;;8.00;5.25;;;;;-143.57;100.00;65101.44;5041133;28;46257;-50
2023/07/04 06:38:33;;;;;;;;;5.25;4.75;;;;;-143.57;100.00;65101.44;5019379;28;45417;-51
2023/07/04 06:41:01;;;;;;;;;9.50;5.75;;;;;-143.57;100.00;65101.44;5039028;28;45410;-47
2023/07/04 06:43:28;;;;;;;;;6.25;6.00;;;;;-143.57;100.00;65101.44;5041362;28;45483;-47
2023/07/04 06:45:54;;;;;;;;;10.00;6.00;;;;;-143.57;100.00;65101.44;5042236;28;45339;-47
2023/07/04 06:48:21;;;;;;;;;6.00;6.00;;;;;-143.57;100.00;65101.44;5041120;28;45319;-48
2023/07/04 06:51:00;;;;;;;;;11.00;7.00;;;;;-143.57;100.00;65101.44;5041298;28;45438;-47
2023/07/04 06:53:26;;;;;;;;;8.25;7.50;;;;;-143.57;100.00;65101.44;5041220;28;45528;-45
2023/07/04 06:55:52;;;;;;;;;6.00;6.00;;;;;-143.57;100.00;65101.44;5041027;28;46293;-55
2023/07/04 06:58:18;;;;;;;;;9.60;8.20;;;;;-143.57;100.00;65101.44;5041442;28;45243;-44
2023/07/04 07:00:43;;;;;;;;;8.50;6.00;;;;;-143.57;100.00;65101.44;5040974;28;45348;-52
2023/07/04 07:03:09;;;;;;;;;8.75;6.75;;;;;-143.57;100.00;65101.44;5041794;28;45235;-58
2023/07/04 07:05:41;;;;;;;;;7.75;4.75;;;;;-143.57;100.00;65101.44;5040289;28;47591;-44
2023/07/04 07:08:07;;;;;;;;;6.60;6.40;;;;;-143.57;100.00;65101.44;5040581;28;45423;-55
2023/07/04 07:10:36;;;;;;;;;9.25;4.25;;;;;-143.57;100.00;65101.44;5040618;28;45340;-59
2023/07/04 07:13:04;;;;;;;;;7.20;5.20;;;;;-143.57;100.00;65101.44;5040999;28;44897;-54
2023/07/04 07:15:30;;;;;;;;;7.60;5.80;;;;;-143.57;100.00;65101.44;5040073;28;45580;-58
2023/07/04 07:17:56;;;;;;;;;5.75;4.25;;;;;-143.57;100.00;65101.44;5040205;28;45398;-56
2023/07/04 07:20:21;;;;;;;;;4.00;4.00;;;;;-143.57;100.00;65101.44;5040399;28;45437;-62
2023/07/04 07:22:46;;;;;;;;;5.75;4.75;;;;;-143.57;100.00;65101.44;5039598;28;45211;-55
2023/07/04 07:25:12;;;;;;;;;9.50;7.00;;;;;-143.57;100.00;65101.44;5039350;28;46286;-52
2023/07/04 07:27:37;;;;;;;;;6.00;5.75;;;;;-143.57;100.00;65101.44;5038021;28;45340;-59
2023/07/04 07:30:03;;;;;;;;;5.25;5.25;;;;;-143.57;100.00;65101.44;5038617;28;45344;-53
2023/07/04 07:32:28;;;;;;;;;9.50;5.00;;;;;-143.57;100.00;65101.44;5038435;28;45438;-62
2023/07/04 07:34:53;;;;;;;;;7.00;6.00;;;;;-143.57;100.00;65101.44;5037937;28;46274;-58
2023/07/04 07:37:19;;;;;;;;;8.50;6.00;;;;;-143.57;100.00;65101.44;5037335;28;45396;-51
2023/07/04 07:39:44;;;;;;;;;9.25;6.25;;;;;-143.57;100.00;65101.44;5037585;28;45215;-47
2023/07/04 07:42:11;;;;;;;;;6.75;5.00;;;;;-143.57;100.00;65101.44;5036654;28;45431;-50
2023/07/04 07:44:37;;;;;;;;;8.60;8.60;;;;;-143.57;100.00;65101.44;5017567;28;46392;-48
2023/07/04 07:47:02;;;;;;;;;8.00;6.00;;;;;-143.57;100.00;65101.44;5017375;28;45984;-45
2023/07/04 07:49:28;;;;;;;;;6.75;3.00;;;;;-143.57;100.00;65101.44;5017481;28;45241;-55
2023/07/04 07:51:53;;;;;;;;;5.25;4.50;;;;;-143.57;100.00;65101.44;5017278;28;45356;-41
2023/07/04 07:54:18;;;;;;;;;6.00;5.00;;;;;-143.57;100.00;65101.44;5017176;28;45346;-50
2023/07/04 07:56:45;;;;;;;;;5.50;4.00;;;;;-143.57;100.00;65101.44;5017052;28;45451;-44
2023/07/04 07:59:12;;;;;;;;;5.40;5.40;;;;;-143.57;100.00;65101.44;5016230;28;45546;-47
2023/07/04 08:01:38;;;;;;;;;5.80;5.00;;;;;-143.57;100.00;65101.44;5014844;28;45453;-51
2023/07/04 08:04:04;;;;;;;;;5.40;5.40;;;;;-143.57;100.00;65101.44;5013616;28;46717;-49
2023/07/04 08:06:33;;;;;;;;;3.40;3.40;;;;;-143.57;100.00;65101.44;5014293;28;45483;-51
2023/07/04 08:09:01;;;;;;;;;6.20;5.60;;;;;-143.57;100.00;65101.44;5013970;28;45486;-53
2023/07/04 08:11:27;;;;;;;;;5.60;4.20;;;;;-143.57;100.00;65101.44;5013766;28;45511;-46
2023/07/04 08:13:54;;;;;;;;;7.60;4.80;;;;;-143.57;100.00;65101.44;5013614;28;46014;-57
2023/07/04 08:16:44;;;;;;;;;7.00;5.80;;;;;-143.57;100.00;65101.44;5010803;28;45409;-51
2023/07/04 08:19:10;;;;;;;;;7.00;5.00;;;;;-143.57;100.00;65101.44;4914031;28;45560;-44
2023/07/04 08:21:35;;;;;;;;;9.00;5.25;;;;;-143.57;100.00;65101.44;4914290;28;45486;-56
2023/07/04 08:24:02;;;;;;;;;5.75;4.25;;;;;-143.57;100.00;65101.44;4913788;28;45550;-46
2023/07/04 08:26:27;;;;;;;;;6.60;5.00;;;;;-143.57;100.00;65101.44;4932338;28;45531;-42
2023/07/04 08:28:54;;;;;;;;;6.00;5.75;;;;;-143.57;100.00;65101.44;4932408;28;45614;-49
2023/07/04 08:31:21;;;;;;;;;6.40;5.20;;;;;-143.57;100.00;65101.44;4932450;28;45591;-57
2023/07/04 08:33:47;;;;;;;;;4.80;4.40;;;;;-143.57;100.00;65101.44;4932651;28;45860;-52
2023/07/04 08:36:12;;;;;;;;;6.25;5.25;;;;;-143.57;100.00;65101.44;4928956;28;45525;-52
2023/07/04 08:38:38;;;;;;;;;8.00;4.75;;;;;-143.57;100.00;65101.44;4913476;28;45494;-53
2023/07/04 08:41:16;;;;;;;;;9.00;6.00;;;;;-143.57;100.00;65101.44;4917302;28;45477;-47
2023/07/04 08:43:52;;;;;;;;;6.60;5.60;;;;;-143.57;100.00;65101.44;4917095;28;47698;-48
2023/07/04 08:46:19;;;;;;;;;8.40;5.00;;;;;-143.57;100.00;65101.44;4901753;28;45544;-50
2023/07/04 08:48:46;;;;;;;;;7.00;5.60;;;;;-143.57;100.00;65101.44;4916807;28;45915;-61
2023/07/04 08:51:20;;;;;;;;;6.00;6.00;;;;;-143.57;100.00;65101.44;4932750;28;45446;-59
2023/07/04 08:53:51;;;;;;;;;5.40;4.60;;;;;-143.57;100.00;65101.44;4935685;28;46031;-61
2023/07/04 08:56:31;;;;;;;;;7.00;4.80;;;;;-143.57;100.00;65101.44;4976193;28;45409;-62
2023/07/04 08:59:23;;;;;;;;;9.60;8.20;;;;;-143.57;100.00;65101.44;5016546;28;45406;-53
2023/07/04 09:02:19;;;;;;;;;5.00;5.00;;;;;-143.57;100.00;65101.44;5016968;28;45447;-46
2023/07/04 09:05:07;;;;;;;;;6.20;5.80;;;;;-143.57;100.00;65101.44;5016134;28;46308;-43
2023/07/04 09:07:36;;;;;;;;;8.40;5.00;;;;;-143.57;100.00;65101.44;4998726;28;45603;-45
2023/07/04 09:10:24;;;;;;;;;7.20;4.00;;;;;-143.57;100.00;65101.44;5016848;28;45568;-44
2023/07/04 09:12:50;;;;;;;;;5.20;5.00;;;;;-143.57;100.00;65101.44;5016850;28;45420;-48
2023/07/04 09:15:31;;;;;;;;;5.25;4.75;;;;;-143.57;100.00;65101.44;5016200;28;46159;-59
2023/07/04 09:18:21;;;;;;;;;6.20;4.20;;;;;-143.57;100.00;65101.44;5016240;28;45560;-55
2023/07/04 09:20:57;;;;;;;;;4.40;4.40;;;;;-143.57;100.00;65101.44;5015641;28;45530;-58
2023/07/04 09:23:23;;;;;;;;;5.40;4.60;;;;;-143.57;100.00;65101.44;5016532;28;45520;-42
2023/07/04 09:25:53;;;;;;;;;6.00;3.20;;;;;-143.57;100.00;65101.44;4998302;28;46982;-44
2023/07/04 09:28:18;;;;;;;;;10.80;5.60;;;;;-143.57;100.00;65101.44;5015810;28;45716;-55
2023/07/04 09:30:44;;;;;;;;;4.00;3.75;;;;;-143.57;100.00;65101.44;4998103;28;45463;-49
2023/07/04 09:33:11;;;;;;;;;6.00;4.75;;;;;-143.57;100.00;65101.44;5016643;28;45509;-53
2023/07/04 09:35:37;;;;;;;;;6.80;5.00;;;;;-143.57;100.00;65101.44;5015880;28;45399;-58
2023/07/04 09:38:03;;;;;;;;;6.75;4.75;;;;;-143.57;100.00;65101.44;5016166;28;45708;-52
2023/07/04 09:40:42;;;;;;;;;4.75;4.25;;;;;-143.57;100.00;65101.44;5016211;28;45567;-55
2023/07/04 09:43:08;;;;;;;;;6.00;4.60;;;;;-143.57;100.00;65101.44;5016153;28;45881;-56
2023/07/04 09:45:34;;;;;;;;;6.00;5.00;;;;;-143.57;100.00;65101.44;5016137;28;45637;-50
2023/07/04 09:48:00;;;;;;;;;6.75;4.75;;;;;-143.57;100.00;65101.44;5015663;28;45397;-53
2023/07/04 09:50:29;;;;;;;;;9.00;5.00;;;;;-143.57;100.00;65101.44;5015405;28;45379;-53
2023/07/04 09:53:09;;;;;;;;;8.60;4.60;;;;;-143.57;100.00;65101.44;5013567;28;45419;-58
2023/07/04 09:55:37;;;;;;;;;5.20;4.40;;;;;-143.57;100.00;65101.44;5015737;28;45497;-55
2023/07/04 09:58:18;;;;;;;;;5.20;4.20;;;;;-143.57;100.00;65101.44;5024191;28;45442;-58
2023/07/04 10:00:59;;;;;;;;;6.20;4.40;;;;;-143.57;100.00;65101.44;5035357;28;45319;-60
2023/07/04 10:03:25;;;;;;;;;10.00;8.20;;;;;-143.57;100.00;65101.44;5034711;28;45425;-60
2023/07/04 10:05:51;;;;;;;;;7.75;7.75;;;;;-143.57;100.00;65101.44;5035196;28;46285;-52
2023/07/04 10:08:16;;;;;;;;;6.50;4.75;;;;;-143.57;100.00;65101.44;5034737;28;45545;-48
2023/07/04 10:10:50;;;;;;;;;8.25;5.50;;;;;-143.57;100.00;65101.44;5034784;28;45476;-43
2023/07/04 10:13:19;;;;;;;;;5.00;5.00;;;;;-143.57;100.00;65101.44;5035082;28;45496;-48
2023/07/04 10:15:46;;;;;;;;;8.60;5.60;;;;;-143.57;100.00;65101.44;5034793;28;45471;-64
2023/07/04 10:18:32;;;;;;;;;5.40;4.80;;;;;-143.57;100.00;65101.44;5034963;28;45556;-45
2023/07/04 10:21:00;;;;;;;;;4.00;4.00;;;;;-143.57;100.00;65101.44;5034739;28;45464;-47
2023/07/04 10:23:27;;;;;;;;;8.40;7.60;;;;;-143.57;100.00;65101.44;5034937;28;45445;-53
2023/07/04 10:25:57;;;;;;;;;8.40;6.80;;;;;-143.57;100.00;65101.44;5034163;28;46542;-52
2023/07/04 10:28:28;;;;;;;;;7.80;7.80;;;;;-143.57;100.00;65101.44;5033228;28;45195;-53
2023/07/04 10:30:58;;;;;;;;;6.60;6.00;;;;;-143.57;100.00;65101.44;5034900;28;45584;-51
2023/07/04 10:33:38;;;;;;;;;6.00;6.00;;;;;-143.57;100.00;65101.44;5035440;28;45537;-56
2023/07/04 10:36:08;;;;;;;;;6.00;6.00;;;;;-143.57;100.00;65101.44;5034583;28;45640;-55
2023/07/04 10:38:46;;;;;;;;;8.60;5.80;;;;;-143.57;100.00;65101.44;5034599;28;45529;-43
2023/07/04 10:41:23;;;;;;;;;5.60;5.60;;;;;-143.57;100.00;65101.44;5035104;28;45446;-52
2023/07/04 10:44:03;;;;;;;;;6.20;5.00;;;;;-143.57;100.00;65101.44;5032926;28;45447;-46
2023/07/04 10:46:37;;;;;;;;;8.20;7.00;;;;;-143.57;100.00;65101.44;5034206;28;46241;-44
2023/07/04 10:49:09;;;;;;;;;7.40;5.00;;;;;-143.57;100.00;65101.44;5024756;28;45366;-56
2023/07/04 10:51:38;;;;;;;;;7.20;5.60;;;;;-143.57;100.00;65101.44;5026469;28;45457;-47
2023/07/04 10:54:07;;;;;;;;;4.00;3.60;;;;;-143.57;100.00;65101.44;5029511;28;45827;-52
2023/07/04 10:56:35;;;;;;;;;8.60;8.40;;;;;-143.57;100.00;65101.44;5027373;28;46128;-48
2023/07/04 10:59:07;;;;;;;;;9.40;6.60;;;;;-143.57;100.00;65101.44;5021076;28;45699;-45
2023/07/04 11:01:41;;;;;;;;;9.20;6.40;;;;;-143.57;100.00;65101.44;5029488;28;45409;-44
2023/07/04 11:04:19;;;;;;;;;5.00;4.60;;;;;-143.57;100.00;65101.44;5034466;28;45548;-44
2023/07/04 11:07:24;;;;;;;;;8.80;7.20;;;;;-143.57;100.00;65101.44;5034110;28;46744;-42
2023/07/04 11:09:55;;;;;;;;;8.00;4.80;;;;;-143.57;100.00;65101.44;4897639;28;45385;-44
2023/07/04 11:12:26;;;;;;;;;9.20;5.40;;;;;-143.57;100.00;65101.44;4914924;28;45540;-55
2023/07/04 11:14:59;;;;;;;;;7.40;7.40;;;;;-143.57;100.00;65101.44;4914806;28;45584;-41